sensor_id;sensor_type;location;lat;lon;timestamp;temperature;humidity
26505;DHT22;19493;48.042;7.584;2023-06-04T00:01:44;17.50;99.90
26505;DHT22;19493;48.042;7.584;2023-06-04T00:04:11;17.40;99.90
26505;DHT22;19493;48.042;7.584;2023-06-04T00:06:36;17.40;99.90
26505;DHT22;19493;48.042;7.584;2023-06-04T00:09:02;17.40;99.90
26505;DHT22;19493;48.042;7.584;2023-06-04T00:11:28;17.30;99.90
26505;DHT22;19493;48.042;7.584;2023-06-04T00:13:53;17.30;99.90
26505;DHT22;19493;48.042;7.584;2023-06-04T00:16:19;17.20;99.90
26505;DHT22;19493;48.042;7.584;2023-06-04T00:18:44;17.20;99.90
26505;DHT22;19493;48.042;7.584;2023-06-04T00:21:10;17.20;99.90
26505;DHT22;19493;48.042;7.584;2023-06-04T00:23:35;17.10;99.90
26505;DHT22;19493;48.042;7.584;2023-06-04T00:26:01;17.10;99.90
26505;DHT22;19493;48.042;7.584;2023-06-04T00:28:26;17.10;99.90
26505;DHT22;19493;48.042;7.584;2023-06-04T00:30:52;17.10;99.90
26505;DHT22;19493;48.042;7.584;2023-06-04T00:33:17;17.10;99.90
26505;DHT22;19493;48.042;7.584;2023-06-04T00:35:43;17.10;99.90
26505;DHT22;19493;48.042;7.584;2023-06-04T00:38:08;17.10;99.90
26505;DHT22;19493;48.042;7.584;2023-06-04T00:40:34;17.10;99.90
26505;DHT22;19493;48.042;7.584;2023-06-04T00:43:00;17.00;99.90
26505;DHT22;19493;48.042;7.584;2023-06-04T00:45:26;17.00;99.90
26505;DHT22;19493;48.042;7.584;2023-06-04T00:47:52;16.90;99.90
26505;DHT22;19493;48.042;7.584;2023-06-04T00:50:18;16.90;99.90
26505;DHT22;19493;48.042;7.584;2023-06-04T00:52:46;16.80;99.90
26505;DHT22;19493;48.042;7.584;2023-06-04T00:55:12;16.70;99.90
26505;DHT22;19493;48.042;7.584;2023-06-04T00:57:38;16.60;99.90
26505;DHT22;19493;48.042;7.584;2023-06-04T01:00:04;16.60;99.90
26505;DHT22;19493;48.042;7.584;2023-06-04T01:02:32;16.50;99.90
26505;DHT22;19493;48.042;7.584;2023-06-04T01:05:18;16.40;99.90
26505;DHT22;19493;48.042;7.584;2023-06-04T01:07:47;16.40;99.90
26505;DHT22;19493;48.042;7.584;2023-06-04T01:10:14;16.30;99.90
26505;DHT22;19493;48.042;7.584;2023-06-04T01:12:42;16.20;99.90
26505;DHT22;19493;48.042;7.584;2023-06-04T01:15:10;16.20;99.90
26505;DHT22;19493;48.042;7.584;2023-06-04T01:17:40;16.10;99.90
26505;DHT22;19493;48.042;7.584;2023-06-04T01:25:38;15.90;99.90
26505;DHT22;19493;48.042;7.584;2023-06-04T01:28:08;15.90;99.90
26505;DHT22;19493;48.042;7.584;2023-06-04T01:30:38;15.80;99.90
26505;DHT22;19493;48.042;7.584;2023-06-04T01:33:09;15.70;99.90
26505;DHT22;19493;48.042;7.584;2023-06-04T01:35:36;15.70;99.90
26505;DHT22;19493;48.042;7.584;2023-06-04T01:38:02;15.70;99.90
26505;DHT22;19493;48.042;7.584;2023-06-04T01:40:27;15.60;99.90
26505;DHT22;19493;48.042;7.584;2023-06-04T01:42:53;15.60;99.90
26505;DHT22;19493;48.042;7.584;2023-06-04T01:45:25;15.60;99.90
26505;DHT22;19493;48.042;7.584;2023-06-04T01:47:51;15.50;99.90
26505;DHT22;19493;48.042;7.584;2023-06-04T01:50:17;15.50;99.90
26505;DHT22;19493;48.042;7.584;2023-06-04T01:52:42;15.40;99.90
26505;DHT22;19493;48.042;7.584;2023-06-04T01:55:10;15.40;99.90
26505;DHT22;19493;48.042;7.584;2023-06-04T01:57:37;15.30;99.90
26505;DHT22;19493;48.042;7.584;2023-06-04T02:00:05;15.30;99.90
26505;DHT22;19493;48.042;7.584;2023-06-04T02:02:33;15.30;99.90
26505;DHT22;19493;48.042;7.584;2023-06-04T02:04:59;15.20;99.90
26505;DHT22;19493;48.042;7.584;2023-06-04T02:07:24;15.20;99.90
26505;DHT22;19493;48.042;7.584;2023-06-04T02:09:51;15.20;99.90
26505;DHT22;19493;48.042;7.584;2023-06-04T02:12:17;15.10;99.90
26505;DHT22;19493;48.042;7.584;2023-06-04T02:14:43;15.10;99.90
26505;DHT22;19493;48.042;7.584;2023-06-04T02:17:11;15.10;99.90
26505;DHT22;19493;48.042;7.584;2023-06-04T02:19:42;15.00;99.90
26505;DHT22;19493;48.042;7.584;2023-06-04T02:22:18;15.00;99.90
26505;DHT22;19493;48.042;7.584;2023-06-04T02:24:44;14.90;99.90
26505;DHT22;19493;48.042;7.584;2023-06-04T02:27:11;14.90;99.90
26505;DHT22;19493;48.042;7.584;2023-06-04T02:29:39;14.90;99.90
26505;DHT22;19493;48.042;7.584;2023-06-04T02:32:05;15.00;99.90
26505;DHT22;19493;48.042;7.584;2023-06-04T02:34:31;15.00;99.90
26505;DHT22;19493;48.042;7.584;2023-06-04T02:36:56;15.00;99.90
26505;DHT22;19493;48.042;7.584;2023-06-04T02:39:22;15.00;99.90
26505;DHT22;19493;48.042;7.584;2023-06-04T02:41:47;15.00;99.90
26505;DHT22;19493;48.042;7.584;2023-06-04T02:44:13;15.00;99.90
26505;DHT22;19493;48.042;7.584;2023-06-04T02:46:38;15.00;99.90
26505;DHT22;19493;48.042;7.584;2023-06-04T02:49:04;15.00;99.90
26505;DHT22;19493;48.042;7.584;2023-06-04T02:51:30;15.00;99.90
26505;DHT22;19493;48.042;7.584;2023-06-04T02:53:56;15.00;99.90
26505;DHT22;19493;48.042;7.584;2023-06-04T02:56:22;14.90;99.90
26505;DHT22;19493;48.042;7.584;2023-06-04T02:58:51;14.90;99.90
26505;DHT22;19493;48.042;7.584;2023-06-04T03:01:22;14.80;99.90
26505;DHT22;19493;48.042;7.584;2023-06-04T03:03:48;14.80;99.90
26505;DHT22;19493;48.042;7.584;2023-06-04T03:06:15;14.80;99.90
26505;DHT22;19493;48.042;7.584;2023-06-04T03:08:41;14.70;99.90
26505;DHT22;19493;48.042;7.584;2023-06-04T03:11:07;14.70;99.90
26505;DHT22;19493;48.042;7.584;2023-06-04T03:13:33;14.60;99.90
26505;DHT22;19493;48.042;7.584;2023-06-04T03:15:58;14.60;99.90
26505;DHT22;19493;48.042;7.584;2023-06-04T03:18:30;14.50;99.90
26505;DHT22;19493;48.042;7.584;2023-06-04T03:20:56;14.50;99.90
26505;DHT22;19493;48.042;7.584;2023-06-04T03:23:22;14.50;99.90
26505;DHT22;19493;48.042;7.584;2023-06-04T03:25:48;14.50;99.90
26505;DHT22;19493;48.042;7.584;2023-06-04T03:28:14;14.50;99.90
26505;DHT22;19493;48.042;7.584;2023-06-04T03:30:40;14.50;99.90
26505;DHT22;19493;48.042;7.584;2023-06-04T03:33:07;14.50;99.90
26505;DHT22;19493;48.042;7.584;2023-06-04T03:35:33;14.50;99.90
26505;DHT22;19493;48.042;7.584;2023-06-04T03:37:58;14.60;99.90
26505;DHT22;19493;48.042;7.584;2023-06-04T03:40:24;14.60;99.90
26505;DHT22;19493;48.042;7.584;2023-06-04T03:42:49;14.50;99.90
26505;DHT22;19493;48.042;7.584;2023-06-04T03:45:15;14.50;99.90
26505;DHT22;19493;48.042;7.584;2023-06-04T03:47:40;14.40;99.90
26505;DHT22;19493;48.042;7.584;2023-06-04T03:50:06;14.40;99.90
26505;DHT22;19493;48.042;7.584;2023-06-04T03:52:32;14.30;99.90
26505;DHT22;19493;48.042;7.584;2023-06-04T03:54:58;14.30;99.90
26505;DHT22;19493;48.042;7.584;2023-06-04T03:57:24;14.30;99.90
26505;DHT22;19493;48.042;7.584;2023-06-04T03:59:50;14.20;99.90
26505;DHT22;19493;48.042;7.584;2023-06-04T04:02:15;14.20;99.90
26505;DHT22;19493;48.042;7.584;2023-06-04T04:04:43;14.20;99.90
26505;DHT22;19493;48.042;7.584;2023-06-04T04:07:09;14.20;99.90
26505;DHT22;19493;48.042;7.584;2023-06-04T04:09:36;14.20;99.90
26505;DHT22;19493;48.042;7.584;2023-06-04T04:12:01;14.20;99.90
26505;DHT22;19493;48.042;7.584;2023-06-04T04:14:28;14.20;99.90
26505;DHT22;19493;48.042;7.584;2023-06-04T04:16:53;14.20;99.90
26505;DHT22;19493;48.042;7.584;2023-06-04T04:19:19;14.10;99.90
26505;DHT22;19493;48.042;7.584;2023-06-04T04:21:46;14.20;99.90
26505;DHT22;19493;48.042;7.584;2023-06-04T04:24:22;14.20;99.90
26505;DHT22;19493;48.042;7.584;2023-06-04T04:26:48;14.20;99.90
26505;DHT22;19493;48.042;7.584;2023-06-04T04:29:22;14.20;99.90
26505;DHT22;19493;48.042;7.584;2023-06-04T04:31:53;14.20;99.90
26505;DHT22;19493;48.042;7.584;2023-06-04T04:34:22;14.30;99.90
26505;DHT22;19493;48.042;7.584;2023-06-04T04:36:49;14.30;99.90
26505;DHT22;19493;48.042;7.584;2023-06-04T04:39:24;14.40;99.90
26505;DHT22;19493;48.042;7.584;2023-06-04T04:41:50;14.50;99.90
26505;DHT22;19493;48.042;7.584;2023-06-04T04:44:16;14.50;99.90
26505;DHT22;19493;48.042;7.584;2023-06-04T04:46:42;14.60;99.90
26505;DHT22;19493;48.042;7.584;2023-06-04T04:49:08;14.70;99.90
26505;DHT22;19493;48.042;7.584;2023-06-04T04:51:33;14.80;99.90
26505;DHT22;19493;48.042;7.584;2023-06-04T04:53:59;15.00;99.90
26505;DHT22;19493;48.042;7.584;2023-06-04T04:56:28;15.10;99.90
26505;DHT22;19493;48.042;7.584;2023-06-04T04:58:54;15.30;99.90
26505;DHT22;19493;48.042;7.584;2023-06-04T05:01:20;15.40;99.90
26505;DHT22;19493;48.042;7.584;2023-06-04T05:03:46;15.70;99.90
26505;DHT22;19493;48.042;7.584;2023-06-04T05:06:12;15.90;99.90
26505;DHT22;19493;48.042;7.584;2023-06-04T05:08:38;16.10;99.90
26505;DHT22;19493;48.042;7.584;2023-06-04T05:11:03;16.30;99.90
26505;DHT22;19493;48.042;7.584;2023-06-04T05:13:29;16.50;99.90
26505;DHT22;19493;48.042;7.584;2023-06-04T05:15:55;16.70;99.90
26505;DHT22;19493;48.042;7.584;2023-06-04T05:18:20;16.80;99.90
26505;DHT22;19493;48.042;7.584;2023-06-04T05:20:46;16.80;99.90
26505;DHT22;19493;48.042;7.584;2023-06-04T05:23:12;16.90;99.90
26505;DHT22;19493;48.042;7.584;2023-06-04T05:25:39;16.80;99.00
26505;DHT22;19493;48.042;7.584;2023-06-04T05:28:06;16.80;99.50
26505;DHT22;19493;48.042;7.584;2023-06-04T05:30:32;16.80;99.70
26505;DHT22;19493;48.042;7.584;2023-06-04T05:32:59;16.70;98.10
26505;DHT22;19493;48.042;7.584;2023-06-04T05:35:25;16.60;97.80
26505;DHT22;19493;48.042;7.584;2023-06-04T05:37:51;16.60;98.00
26505;DHT22;19493;48.042;7.584;2023-06-04T05:40:20;16.60;98.50
26505;DHT22;19493;48.042;7.584;2023-06-04T05:42:49;16.70;98.00
26505;DHT22;19493;48.042;7.584;2023-06-04T05:45:14;16.70;97.30
26505;DHT22;19493;48.042;7.584;2023-06-04T05:47:40;16.80;97.60
26505;DHT22;19493;48.042;7.584;2023-06-04T05:50:06;16.80;97.10
26505;DHT22;19493;48.042;7.584;2023-06-04T05:52:32;16.80;97.30
26505;DHT22;19493;48.042;7.584;2023-06-04T05:54:59;16.80;97.20
26505;DHT22;19493;48.042;7.584;2023-06-04T05:57:25;16.90;97.10
26505;DHT22;19493;48.042;7.584;2023-06-04T05:59:51;16.80;96.70
26505;DHT22;19493;48.042;7.584;2023-06-04T06:02:16;16.90;97.70
26505;DHT22;19493;48.042;7.584;2023-06-04T06:04:42;17.00;97.50
26505;DHT22;19493;48.042;7.584;2023-06-04T06:07:07;17.10;96.80
26505;DHT22;19493;48.042;7.584;2023-06-04T06:09:33;17.20;96.50
26505;DHT22;19493;48.042;7.584;2023-06-04T06:11:59;17.30;95.90
26505;DHT22;19493;48.042;7.584;2023-06-04T06:14:24;17.30;95.30
26505;DHT22;19493;48.042;7.584;2023-06-04T06:16:51;17.30;95.30
26505;DHT22;19493;48.042;7.584;2023-06-04T06:19:16;17.30;95.60
26505;DHT22;19493;48.042;7.584;2023-06-04T06:21:42;17.30;96.30
26505;DHT22;19493;48.042;7.584;2023-06-04T06:24:08;17.10;99.70
26505;DHT22;19493;48.042;7.584;2023-06-04T06:26:33;16.70;99.90
26505;DHT22;19493;48.042;7.584;2023-06-04T06:28:59;16.40;99.90
26505;DHT22;19493;48.042;7.584;2023-06-04T06:31:25;16.20;99.90
26505;DHT22;19493;48.042;7.584;2023-06-04T06:33:51;16.00;99.90
26505;DHT22;19493;48.042;7.584;2023-06-04T06:36:17;15.70;99.90
26505;DHT22;19493;48.042;7.584;2023-06-04T06:38:46;15.50;99.90
26505;DHT22;19493;48.042;7.584;2023-06-04T06:41:12;15.20;99.90
26505;DHT22;19493;48.042;7.584;2023-06-04T06:43:38;15.10;99.90
26505;DHT22;19493;48.042;7.584;2023-06-04T06:46:03;14.80;99.90
26505;DHT22;19493;48.042;7.584;2023-06-04T06:48:29;14.60;99.90
26505;DHT22;19493;48.042;7.584;2023-06-04T06:50:55;14.40;99.90
26505;DHT22;19493;48.042;7.584;2023-06-04T06:53:21;14.30;99.90
26505;DHT22;19493;48.042;7.584;2023-06-04T06:55:51;14.20;99.90
26505;DHT22;19493;48.042;7.584;2023-06-04T06:58:17;14.10;99.90
26505;DHT22;19493;48.042;7.584;2023-06-04T07:03:52;14.20;99.90
26505;DHT22;19493;48.042;7.584;2023-06-04T07:06:18;14.20;99.90
26505;DHT22;19493;48.042;7.584;2023-06-04T07:08:43;14.20;99.90
26505;DHT22;19493;48.042;7.584;2023-06-04T07:11:09;14.20;99.90
26505;DHT22;19493;48.042;7.584;2023-06-04T07:13:38;14.10;99.90
26505;DHT22;19493;48.042;7.584;2023-06-04T07:16:03;14.10;99.90
26505;DHT22;19493;48.042;7.584;2023-06-04T07:18:29;14.10;99.90
26505;DHT22;19493;48.042;7.584;2023-06-04T07:20:55;14.30;99.90
26505;DHT22;19493;48.042;7.584;2023-06-04T07:23:20;14.40;99.90
26505;DHT22;19493;48.042;7.584;2023-06-04T07:25:46;14.50;99.90
26505;DHT22;19493;48.042;7.584;2023-06-04T07:28:12;14.80;99.90
26505;DHT22;19493;48.042;7.584;2023-06-04T07:30:38;15.00;99.90
26505;DHT22;19493;48.042;7.584;2023-06-04T07:33:03;15.20;99.90
26505;DHT22;19493;48.042;7.584;2023-06-04T07:35:29;15.20;99.90
26505;DHT22;19493;48.042;7.584;2023-06-04T07:37:54;15.20;99.90
26505;DHT22;19493;48.042;7.584;2023-06-04T07:40:20;15.30;99.90
26505;DHT22;19493;48.042;7.584;2023-06-04T07:42:46;15.40;99.90
26505;DHT22;19493;48.042;7.584;2023-06-04T07:45:15;15.40;99.90
26505;DHT22;19493;48.042;7.584;2023-06-04T07:47:41;15.40;99.90
26505;DHT22;19493;48.042;7.584;2023-06-04T07:50:07;15.40;99.90
26505;DHT22;19493;48.042;7.584;2023-06-04T07:52:33;15.60;99.90
26505;DHT22;19493;48.042;7.584;2023-06-04T07:54:59;15.60;99.90
26505;DHT22;19493;48.042;7.584;2023-06-04T07:57:25;15.80;99.90
26505;DHT22;19493;48.042;7.584;2023-06-04T07:59:50;16.10;99.90
26505;DHT22;19493;48.042;7.584;2023-06-04T08:02:17;16.10;99.90
26505;DHT22;19493;48.042;7.584;2023-06-04T08:04:42;16.30;99.90
26505;DHT22;19493;48.042;7.584;2023-06-04T08:07:08;16.40;99.90
26505;DHT22;19493;48.042;7.584;2023-06-04T08:09:33;16.60;99.90
26505;DHT22;19493;48.042;7.584;2023-06-04T08:13:00;16.70;99.90
26505;DHT22;19493;48.042;7.584;2023-06-04T08:15:28;16.90;99.90
26505;DHT22;19493;48.042;7.584;2023-06-04T08:17:54;16.90;99.90
26505;DHT22;19493;48.042;7.584;2023-06-04T08:20:19;16.90;99.90
26505;DHT22;19493;48.042;7.584;2023-06-04T08:22:45;17.00;99.90
26505;DHT22;19493;48.042;7.584;2023-06-04T08:25:11;17.00;99.90
26505;DHT22;19493;48.042;7.584;2023-06-04T08:27:37;16.80;99.90
26505;DHT22;19493;48.042;7.584;2023-06-04T08:30:03;16.80;99.90
26505;DHT22;19493;48.042;7.584;2023-06-04T08:32:29;16.70;99.90
26505;DHT22;19493;48.042;7.584;2023-06-04T08:34:54;16.80;99.90
26505;DHT22;19493;48.042;7.584;2023-06-04T08:37:20;17.00;99.90
26505;DHT22;19493;48.042;7.584;2023-06-04T08:39:46;17.00;99.90
26505;DHT22;19493;48.042;7.584;2023-06-04T08:42:31;17.20;99.90
26505;DHT22;19493;48.042;7.584;2023-06-04T08:45:00;17.20;99.90
26505;DHT22;19493;48.042;7.584;2023-06-04T08:47:26;17.20;99.90
26505;DHT22;19493;48.042;7.584;2023-06-04T08:49:58;17.40;99.90
26505;DHT22;19493;48.042;7.584;2023-06-04T08:52:25;17.40;99.90
26505;DHT22;19493;48.042;7.584;2023-06-04T08:54:51;17.30;99.90
26505;DHT22;19493;48.042;7.584;2023-06-04T08:57:21;17.20;99.90
26505;DHT22;19493;48.042;7.584;2023-06-04T08:59:47;17.20;99.90
26505;DHT22;19493;48.042;7.584;2023-06-04T09:02:14;17.20;99.90
26505;DHT22;19493;48.042;7.584;2023-06-04T09:04:40;17.20;99.90
26505;DHT22;19493;48.042;7.584;2023-06-04T09:07:06;17.40;99.90
26505;DHT22;19493;48.042;7.584;2023-06-04T09:09:37;17.40;99.90
26505;DHT22;19493;48.042;7.584;2023-06-04T09:12:03;17.40;99.90
26505;DHT22;19493;48.042;7.584;2023-06-04T09:14:31;17.40;99.90
26505;DHT22;19493;48.042;7.584;2023-06-04T09:16:57;17.40;99.90
26505;DHT22;19493;48.042;7.584;2023-06-04T09:19:24;17.30;99.90
26505;DHT22;19493;48.042;7.584;2023-06-04T09:21:57;17.40;99.90
26505;DHT22;19493;48.042;7.584;2023-06-04T09:24:25;17.50;99.90
26505;DHT22;19493;48.042;7.584;2023-06-04T09:26:51;17.50;99.90
26505;DHT22;19493;48.042;7.584;2023-06-04T09:29:17;17.50;99.90
26505;DHT22;19493;48.042;7.584;2023-06-04T09:31:47;17.50;99.90
26505;DHT22;19493;48.042;7.584;2023-06-04T09:34:13;17.60;99.90
26505;DHT22;19493;48.042;7.584;2023-06-04T09:36:39;17.80;99.90
26505;DHT22;19493;48.042;7.584;2023-06-04T09:39:17;17.70;99.90
26505;DHT22;19493;48.042;7.584;2023-06-04T09:41:43;17.80;99.90
26505;DHT22;19493;48.042;7.584;2023-06-04T09:44:09;17.90;99.90
26505;DHT22;19493;48.042;7.584;2023-06-04T09:46:37;18.00;99.90
26505;DHT22;19493;48.042;7.584;2023-06-04T09:49:04;18.00;99.90
26505;DHT22;19493;48.042;7.584;2023-06-04T09:51:30;18.20;99.90
26505;DHT22;19493;48.042;7.584;2023-06-04T09:53:58;18.30;99.90
26505;DHT22;19493;48.042;7.584;2023-06-04T09:56:24;18.50;99.90
26505;DHT22;19493;48.042;7.584;2023-06-04T09:58:50;18.60;99.90
26505;DHT22;19493;48.042;7.584;2023-06-04T10:01:19;18.70;99.90
26505;DHT22;19493;48.042;7.584;2023-06-04T10:03:47;18.90;99.90
26505;DHT22;19493;48.042;7.584;2023-06-04T10:06:15;18.90;99.90
26505;DHT22;19493;48.042;7.584;2023-06-04T10:08:42;19.00;99.90
26505;DHT22;19493;48.042;7.584;2023-06-04T10:11:09;19.30;99.90
26505;DHT22;19493;48.042;7.584;2023-06-04T10:14:21;19.40;99.90
26505;DHT22;19493;48.042;7.584;2023-06-04T10:16:46;19.70;99.90
26505;DHT22;19493;48.042;7.584;2023-06-04T10:19:12;19.90;99.90
26505;DHT22;19493;48.042;7.584;2023-06-04T10:21:38;20.00;99.90
26505;DHT22;19493;48.042;7.584;2023-06-04T10:24:04;20.20;99.90
26505;DHT22;19493;48.042;7.584;2023-06-04T10:26:33;20.40;99.90
26505;DHT22;19493;48.042;7.584;2023-06-04T10:29:00;20.50;99.90
26505;DHT22;19493;48.042;7.584;2023-06-04T10:31:26;20.70;99.90
26505;DHT22;19493;48.042;7.584;2023-06-04T10:34:01;21.00;99.90
26505;DHT22;19493;48.042;7.584;2023-06-04T10:36:26;21.30;99.90
26505;DHT22;19493;48.042;7.584;2023-06-04T10:38:54;21.20;99.90
26505;DHT22;19493;48.042;7.584;2023-06-04T10:41:22;21.80;99.90
26505;DHT22;19493;48.042;7.584;2023-06-04T10:43:59;22.50;97.40
26505;DHT22;19493;48.042;7.584;2023-06-04T10:46:25;22.80;95.50
26505;DHT22;19493;48.042;7.584;2023-06-04T10:48:52;22.80;92.80
26505;DHT22;19493;48.042;7.584;2023-06-04T10:51:34;22.90;94.00
26505;DHT22;19493;48.042;7.584;2023-06-04T10:54:03;24.10;88.50
26505;DHT22;19493;48.042;7.584;2023-06-04T10:56:30;24.20;83.30
26505;DHT22;19493;48.042;7.584;2023-06-04T10:58:58;23.30;80.30
26505;DHT22;19493;48.042;7.584;2023-06-04T11:01:27;23.80;83.90
26505;DHT22;19493;48.042;7.584;2023-06-04T11:03:57;25.20;78.10
26505;DHT22;19493;48.042;7.584;2023-06-04T11:06:23;26.60;74.90
26505;DHT22;19493;48.042;7.584;2023-06-04T11:11:27;28.30;64.00
26505;DHT22;19493;48.042;7.584;2023-06-04T11:13:53;28.20;60.70
26505;DHT22;19493;48.042;7.584;2023-06-04T11:16:20;28.10;62.60
26505;DHT22;19493;48.042;7.584;2023-06-04T11:18:55;28.50;60.50
26505;DHT22;19493;48.042;7.584;2023-06-04T11:21:22;29.00;58.30
26505;DHT22;19493;48.042;7.584;2023-06-04T11:23:49;30.20;57.10
26505;DHT22;19493;48.042;7.584;2023-06-04T11:26:14;31.60;52.90
26505;DHT22;19493;48.042;7.584;2023-06-04T11:28:40;32.10;50.90
26505;DHT22;19493;48.042;7.584;2023-06-04T11:31:06;32.40;48.20
26505;DHT22;19493;48.042;7.584;2023-06-04T11:33:51;31.80;48.50
26505;DHT22;19493;48.042;7.584;2023-06-04T11:36:28;32.20;47.60
26505;DHT22;19493;48.042;7.584;2023-06-04T11:38:57;32.60;47.50
26505;DHT22;19493;48.042;7.584;2023-06-04T11:41:28;32.80;45.40
26505;DHT22;19493;48.042;7.584;2023-06-04T11:43:56;31.60;46.30
26505;DHT22;19493;48.042;7.584;2023-06-04T11:46:22;31.90;48.20
26505;DHT22;19493;48.042;7.584;2023-06-04T11:48:51;32.60;47.70
26505;DHT22;19493;48.042;7.584;2023-06-04T11:51:17;33.40;46.00
26505;DHT22;19493;48.042;7.584;2023-06-04T11:53:43;34.00;45.40
26505;DHT22;19493;48.042;7.584;2023-06-04T11:56:08;33.90;44.10
26505;DHT22;19493;48.042;7.584;2023-06-04T11:58:34;33.80;43.30
26505;DHT22;19493;48.042;7.584;2023-06-04T12:01:00;33.90;43.00
26505;DHT22;19493;48.042;7.584;2023-06-04T12:03:40;33.70;43.10
26505;DHT22;19493;48.042;7.584;2023-06-04T12:06:17;33.90;42.60
26505;DHT22;19493;48.042;7.584;2023-06-04T12:08:47;32.60;44.20
26505;DHT22;19493;48.042;7.584;2023-06-04T12:11:31;32.80;45.60
26505;DHT22;19493;48.042;7.584;2023-06-04T12:13:59;32.60;44.60
26505;DHT22;19493;48.042;7.584;2023-06-04T12:16:26;32.60;44.50
26505;DHT22;19493;48.042;7.584;2023-06-04T12:18:52;32.90;45.80
26505;DHT22;19493;48.042;7.584;2023-06-04T12:21:24;31.80;46.40
26505;DHT22;19493;48.042;7.584;2023-06-04T12:24:05;31.70;47.60
26505;DHT22;19493;48.042;7.584;2023-06-04T12:26:31;31.80;48.70
26505;DHT22;19493;48.042;7.584;2023-06-04T12:29:01;30.60;48.10
26505;DHT22;19493;48.042;7.584;2023-06-04T12:31:27;29.80;51.20
26505;DHT22;19493;48.042;7.584;2023-06-04T12:33:58;29.40;53.00
26505;DHT22;19493;48.042;7.584;2023-06-04T12:36:24;29.20;52.80
26505;DHT22;19493;48.042;7.584;2023-06-04T12:38:50;29.10;52.60
26505;DHT22;19493;48.042;7.584;2023-06-04T12:41:15;29.10;52.30
26505;DHT22;19493;48.042;7.584;2023-06-04T12:43:41;30.60;51.90
26505;DHT22;19493;48.042;7.584;2023-06-04T12:46:06;32.40;48.90
26505;DHT22;19493;48.042;7.584;2023-06-04T12:48:32;33.50;47.00
26505;DHT22;19493;48.042;7.584;2023-06-04T12:50:58;33.50;45.20
26505;DHT22;19493;48.042;7.584;2023-06-04T12:53:24;32.90;46.70
26505;DHT22;19493;48.042;7.584;2023-06-04T12:55:50;32.20;46.70
26505;DHT22;19493;48.042;7.584;2023-06-04T12:58:16;32.80;46.30
26505;DHT22;19493;48.042;7.584;2023-06-04T13:00:42;32.70;46.60
26505;DHT22;19493;48.042;7.584;2023-06-04T13:03:08;33.10;46.20
26505;DHT22;19493;48.042;7.584;2023-06-04T13:05:36;32.80;46.60
26505;DHT22;19493;48.042;7.584;2023-06-04T13:08:01;33.50;46.90
26505;DHT22;19493;48.042;7.584;2023-06-04T13:10:27;33.80;44.70
26505;DHT22;19493;48.042;7.584;2023-06-04T13:12:53;32.80;45.80
26505;DHT22;19493;48.042;7.584;2023-06-04T13:15:18;32.60;46.40
26505;DHT22;19493;48.042;7.584;2023-06-04T13:17:44;32.20;47.00
26505;DHT22;19493;48.042;7.584;2023-06-04T13:20:10;32.70;47.10
26505;DHT22;19493;48.042;7.584;2023-06-04T13:22:35;32.70;46.30
26505;DHT22;19493;48.042;7.584;2023-06-04T13:25:01;33.00;45.00
26505;DHT22;19493;48.042;7.584;2023-06-04T13:27:27;34.10;44.90
26505;DHT22;19493;48.042;7.584;2023-06-04T13:29:52;34.90;44.20
26505;DHT22;19493;48.042;7.584;2023-06-04T13:32:18;35.40;43.30
26505;DHT22;19493;48.042;7.584;2023-06-04T13:34:44;36.30;41.80
26505;DHT22;19493;48.042;7.584;2023-06-04T13:37:09;36.50;41.00
26505;DHT22;19493;48.042;7.584;2023-06-04T13:39:38;35.00;41.30
26505;DHT22;19493;48.042;7.584;2023-06-04T13:42:04;34.50;43.30
26505;DHT22;19493;48.042;7.584;2023-06-04T13:44:30;35.00;42.60
26505;DHT22;19493;48.042;7.584;2023-06-04T13:46:58;35.50;42.50
26505;DHT22;19493;48.042;7.584;2023-06-04T13:49:24;36.30;40.80
26505;DHT22;19493;48.042;7.584;2023-06-04T13:51:49;36.50;40.80
26505;DHT22;19493;48.042;7.584;2023-06-04T13:54:15;37.10;40.10
26505;DHT22;19493;48.042;7.584;2023-06-04T13:56:40;36.10;39.80
26505;DHT22;19493;48.042;7.584;2023-06-04T13:59:06;36.60;40.40
26505;DHT22;19493;48.042;7.584;2023-06-04T14:01:32;36.80;39.60
26505;DHT22;19493;48.042;7.584;2023-06-04T14:03:57;37.20;40.70
26505;DHT22;19493;48.042;7.584;2023-06-04T14:06:24;36.90;38.10
26505;DHT22;19493;48.042;7.584;2023-06-04T14:08:49;36.70;38.00
26505;DHT22;19493;48.042;7.584;2023-06-04T14:11:15;36.20;37.80
26505;DHT22;19493;48.042;7.584;2023-06-04T14:13:40;35.90;38.80
26505;DHT22;19493;48.042;7.584;2023-06-04T14:16:10;35.40;38.80
26505;DHT22;19493;48.042;7.584;2023-06-04T14:18:36;35.60;39.10
26505;DHT22;19493;48.042;7.584;2023-06-04T14:21:01;36.00;38.40
26505;DHT22;19493;48.042;7.584;2023-06-04T14:23:27;36.60;37.90
26505;DHT22;19493;48.042;7.584;2023-06-04T14:25:52;36.90;37.70
26505;DHT22;19493;48.042;7.584;2023-06-04T14:28:18;37.50;37.00
26505;DHT22;19493;48.042;7.584;2023-06-04T14:30:46;37.40;37.40
26505;DHT22;19493;48.042;7.584;2023-06-04T14:33:11;36.90;37.50
26505;DHT22;19493;48.042;7.584;2023-06-04T14:35:37;37.10;35.40
26505;DHT22;19493;48.042;7.584;2023-06-04T14:38:04;36.80;34.30
26505;DHT22;19493;48.042;7.584;2023-06-04T14:40:30;37.20;34.80
26505;DHT22;19493;48.042;7.584;2023-06-04T14:42:55;36.70;34.70
26505;DHT22;19493;48.042;7.584;2023-06-04T14:45:22;36.60;34.90
26505;DHT22;19493;48.042;7.584;2023-06-04T14:47:48;36.00;34.10
26505;DHT22;19493;48.042;7.584;2023-06-04T14:50:16;35.20;36.20
26505;DHT22;19493;48.042;7.584;2023-06-04T14:52:42;35.30;37.00
26505;DHT22;19493;48.042;7.584;2023-06-04T14:55:08;36.00;37.00
26505;DHT22;19493;48.042;7.584;2023-06-04T14:57:34;36.90;35.60
26505;DHT22;19493;48.042;7.584;2023-06-04T14:59:59;37.50;34.50
26505;DHT22;19493;48.042;7.584;2023-06-04T15:02:25;37.50;33.70
26505;DHT22;19493;48.042;7.584;2023-06-04T15:04:50;36.10;34.10
26505;DHT22;19493;48.042;7.584;2023-06-04T15:07:16;35.70;34.60
26505;DHT22;19493;48.042;7.584;2023-06-04T15:09:42;36.10;35.60
26505;DHT22;19493;48.042;7.584;2023-06-04T15:12:07;35.40;34.80
26505;DHT22;19493;48.042;7.584;2023-06-04T15:14:33;36.10;35.60
26505;DHT22;19493;48.042;7.584;2023-06-04T15:16:58;36.20;34.60
26505;DHT22;19493;48.042;7.584;2023-06-04T15:19:24;36.60;34.40
26505;DHT22;19493;48.042;7.584;2023-06-04T15:21:49;36.90;34.70
26505;DHT22;19493;48.042;7.584;2023-06-04T15:24:15;37.20;33.10
26505;DHT22;19493;48.042;7.584;2023-06-04T15:26:40;36.60;33.40
26505;DHT22;19493;48.042;7.584;2023-06-04T15:29:06;36.30;33.50
26505;DHT22;19493;48.042;7.584;2023-06-04T15:31:32;36.50;34.70
26505;DHT22;19493;48.042;7.584;2023-06-04T15:33:58;35.90;32.90
26505;DHT22;19493;48.042;7.584;2023-06-04T15:36:23;36.20;34.10
26505;DHT22;19493;48.042;7.584;2023-06-04T15:38:49;36.30;33.20
26505;DHT22;19493;48.042;7.584;2023-06-04T15:41:15;36.70;33.00